sensor_id;sensor_type;location;lat;lon;timestamp;P1;durP1;ratioP1;P2;durP2;ratioP2
23206;SDS011;11773;52.570;13.052;2023-02-22T00:01:15;0.93;;;0.70;;
23206;SDS011;11773;52.570;13.052;2023-02-22T00:03:48;0.97;;;0.80;;
23206;SDS011;11773;52.570;13.052;2023-02-22T00:06:21;1.27;;;0.83;;
23206;SDS011;11773;52.570;13.052;2023-02-22T00:08:52;1.47;;;0.63;;
23206;SDS011;11773;52.570;13.052;2023-02-22T00:11:22;0.87;;;0.70;;
23206;SDS011;11773;52.570;13.052;2023-02-22T00:13:51;0.90;;;0.50;;
23206;SDS011;11773;52.570;13.052;2023-02-22T00:16:25;1.20;;;0.80;;
23206;SDS011;11773;52.570;13.052;2023-02-22T00:18:56;1.63;;;0.90;;
23206;SDS011;11773;52.570;13.052;2023-02-22T00:21:26;2.00;;;0.60;;
23206;SDS011;11773;52.570;13.052;2023-02-22T00:23:56;0.77;;;0.70;;
23206;SDS011;11773;52.570;13.052;2023-02-22T00:26:26;1.27;;;0.63;;
23206;SDS011;11773;52.570;13.052;2023-02-22T00:28:57;1.10;;;0.53;;
23206;SDS011;11773;52.570;13.052;2023-02-22T00:31:27;1.37;;;0.63;;
23206;SDS011;11773;52.570;13.052;2023-02-22T00:33:56;1.27;;;0.70;;
23206;SDS011;11773;52.570;13.052;2023-02-22T00:36:26;0.87;;;0.80;;
23206;SDS011;11773;52.570;13.052;2023-02-22T00:38:56;0.50;;;0.50;;
23206;SDS011;11773;52.570;13.052;2023-02-22T00:41:25;0.87;;;0.77;;
23206;SDS011;11773;52.570;13.052;2023-02-22T00:43:54;0.70;;;0.60;;
23206;SDS011;11773;52.570;13.052;2023-02-22T00:46:24;1.00;;;0.60;;
23206;SDS011;11773;52.570;13.052;2023-02-22T00:48:54;0.80;;;0.67;;
23206;SDS011;11773;52.570;13.052;2023-02-22T00:51:26;1.17;;;0.67;;
23206;SDS011;11773;52.570;13.052;2023-02-22T00:53:56;0.87;;;0.60;;
23206;SDS011;11773;52.570;13.052;2023-02-22T00:56:25;1.00;;;0.67;;
23206;SDS011;11773;52.570;13.052;2023-02-22T00:58:54;1.00;;;0.63;;
23206;SDS011;11773;52.570;13.052;2023-02-22T01:01:24;0.85;;;0.72;;
23206;SDS011;11773;52.570;13.052;2023-02-22T01:03:54;0.83;;;0.73;;
23206;SDS011;11773;52.570;13.052;2023-02-22T01:06:25;1.30;;;0.70;;
23206;SDS011;11773;52.570;13.052;2023-02-22T01:08:55;1.57;;;0.60;;
23206;SDS011;11773;52.570;13.052;2023-02-22T01:11:24;2.30;;;1.00;;
23206;SDS011;11773;52.570;13.052;2023-02-22T01:13:54;1.73;;;0.93;;
23206;SDS011;11773;52.570;13.052;2023-02-22T01:16:24;1.90;;;0.80;;
23206;SDS011;11773;52.570;13.052;2023-02-22T01:18:54;1.03;;;0.63;;
23206;SDS011;11773;52.570;13.052;2023-02-22T01:21:23;1.17;;;1.00;;
23206;SDS011;11773;52.570;13.052;2023-02-22T01:23:53;2.40;;;0.70;;
23206;SDS011;11773;52.570;13.052;2023-02-22T01:26:22;0.87;;;0.70;;
23206;SDS011;11773;52.570;13.052;2023-02-22T01:28:52;2.73;;;0.80;;
23206;SDS011;11773;52.570;13.052;2023-02-22T01:31:21;1.40;;;0.70;;
23206;SDS011;11773;52.570;13.052;2023-02-22T01:33:51;1.43;;;0.77;;
23206;SDS011;11773;52.570;13.052;2023-02-22T01:36:21;0.80;;;0.60;;
23206;SDS011;11773;52.570;13.052;2023-02-22T01:38:50;1.17;;;0.67;;
23206;SDS011;11773;52.570;13.052;2023-02-22T01:41:19;0.87;;;0.63;;
23206;SDS011;11773;52.570;13.052;2023-02-22T01:43:49;0.97;;;0.77;;
23206;SDS011;11773;52.570;13.052;2023-02-22T01:46:20;1.17;;;0.60;;
23206;SDS011;11773;52.570;13.052;2023-02-22T01:48:56;0.87;;;0.60;;
23206;SDS011;11773;52.570;13.052;2023-02-22T01:51:33;0.80;;;0.67;;
23206;SDS011;11773;52.570;13.052;2023-02-22T01:54:07;1.30;;;0.93;;
23206;SDS011;11773;52.570;13.052;2023-02-22T01:56:58;1.67;;;0.90;;
23206;SDS011;11773;52.570;13.052;2023-02-22T01:59:37;1.20;;;0.67;;
23206;SDS011;11773;52.570;13.052;2023-02-22T02:02:11;1.10;;;0.93;;
23206;SDS011;11773;52.570;13.052;2023-02-22T02:04:42;1.33;;;0.80;;
23206;SDS011;11773;52.570;13.052;2023-02-22T02:07:14;0.80;;;0.70;;
23206;SDS011;11773;52.570;13.052;2023-02-22T02:09:49;1.10;;;0.80;;
23206;SDS011;11773;52.570;13.052;2023-02-22T02:12:34;1.23;;;0.70;;
23206;SDS011;11773;52.570;13.052;2023-02-22T02:18:03;1.17;;;0.77;;
23206;SDS011;11773;52.570;13.052;2023-02-22T02:23:56;0.43;;;0.43;;
23206;SDS011;11773;52.570;13.052;2023-02-22T02:26:36;0.60;;;0.50;;
23206;SDS011;11773;52.570;13.052;2023-02-22T02:29:16;0.53;;;0.50;;
23206;SDS011;11773;52.570;13.052;2023-02-22T02:35:15;1.03;;;0.67;;
23206;SDS011;11773;52.570;13.052;2023-02-22T02:38:19;0.50;;;0.50;;
23206;SDS011;11773;52.570;13.052;2023-02-22T02:40:38;1.20;;;0.77;;
23206;SDS011;11773;52.570;13.052;2023-02-22T02:43:19;1.57;;;0.77;;
23206;SDS011;11773;52.570;13.052;2023-02-22T02:46:20;1.47;;;0.70;;
23206;SDS011;11773;52.570;13.052;2023-02-22T02:48:53;1.90;;;0.87;;
23206;SDS011;11773;52.570;13.052;2023-02-22T02:51:32;1.10;;;0.70;;
23206;SDS011;11773;52.570;13.052;2023-02-22T02:54:03;0.93;;;0.83;;
23206;SDS011;11773;52.570;13.052;2023-02-22T02:56:36;1.07;;;0.70;;
23206;SDS011;11773;52.570;13.052;2023-02-22T02:59:24;1.60;;;0.80;;
23206;SDS011;11773;52.570;13.052;2023-02-22T03:04:56;0.70;;;0.57;;
23206;SDS011;11773;52.570;13.052;2023-02-22T03:07:58;1.23;;;0.73;;
23206;SDS011;11773;52.570;13.052;2023-02-22T03:10:45;1.10;;;0.70;;
23206;SDS011;11773;52.570;13.052;2023-02-22T03:19:32;1.20;;;0.80;;
23206;SDS011;11773;52.570;13.052;2023-02-22T03:25:06;0.50;;;0.50;;
23206;SDS011;11773;52.570;13.052;2023-02-22T03:27:41;1.13;;;0.70;;
23206;SDS011;11773;52.570;13.052;2023-02-22T03:30:15;1.03;;;0.80;;
23206;SDS011;11773;52.570;13.052;2023-02-22T03:33:05;0.83;;;0.70;;
23206;SDS011;11773;52.570;13.052;2023-02-22T03:35:33;0.40;;;0.40;;
23206;SDS011;11773;52.570;13.052;2023-02-22T03:38:15;1.17;;;0.90;;
23206;SDS011;11773;52.570;13.052;2023-02-22T03:40:48;1.00;;;0.77;;
23206;SDS011;11773;52.570;13.052;2023-02-22T03:43:23;0.80;;;0.50;;
23206;SDS011;11773;52.570;13.052;2023-02-22T03:45:55;0.60;;;0.60;;
23206;SDS011;11773;52.570;13.052;2023-02-22T03:48:35;0.70;;;0.60;;
23206;SDS011;11773;52.570;13.052;2023-02-22T03:51:19;1.37;;;0.60;;
23206;SDS011;11773;52.570;13.052;2023-02-22T03:53:50;1.50;;;0.57;;
23206;SDS011;11773;52.570;13.052;2023-02-22T03:56:25;0.63;;;0.63;;
23206;SDS011;11773;52.570;13.052;2023-02-22T03:59:03;0.87;;;0.60;;
23206;SDS011;11773;52.570;13.052;2023-02-22T04:01:36;1.07;;;0.87;;
23206;SDS011;11773;52.570;13.052;2023-02-22T04:04:05;1.23;;;0.80;;
23206;SDS011;11773;52.570;13.052;2023-02-22T04:06:35;1.40;;;0.70;;
23206;SDS011;11773;52.570;13.052;2023-02-22T04:09:04;1.53;;;0.80;;
23206;SDS011;11773;52.570;13.052;2023-02-22T04:11:34;0.80;;;0.80;;
23206;SDS011;11773;52.570;13.052;2023-02-22T04:14:04;1.23;;;0.90;;
23206;SDS011;11773;52.570;13.052;2023-02-22T04:16:33;0.47;;;0.47;;
23206;SDS011;11773;52.570;13.052;2023-02-22T04:19:03;1.17;;;0.43;;
23206;SDS011;11773;52.570;13.052;2023-02-22T04:21:32;0.47;;;0.47;;
23206;SDS011;11773;52.570;13.052;2023-02-22T04:24:02;0.60;;;0.60;;
23206;SDS011;11773;52.570;13.052;2023-02-22T04:26:32;0.67;;;0.60;;
23206;SDS011;11773;52.570;13.052;2023-02-22T04:29:02;0.83;;;0.60;;
23206;SDS011;11773;52.570;13.052;2023-02-22T04:31:31;0.93;;;0.53;;
23206;SDS011;11773;52.570;13.052;2023-02-22T04:34:01;1.30;;;0.70;;
23206;SDS011;11773;52.570;13.052;2023-02-22T04:36:30;0.53;;;0.50;;
23206;SDS011;11773;52.570;13.052;2023-02-22T04:39:00;0.87;;;0.60;;
23206;SDS011;11773;52.570;13.052;2023-02-22T04:41:31;0.77;;;0.60;;
23206;SDS011;11773;52.570;13.052;2023-02-22T04:44:00;0.73;;;0.50;;
23206;SDS011;11773;52.570;13.052;2023-02-22T04:46:30;0.40;;;0.40;;
23206;SDS011;11773;52.570;13.052;2023-02-22T04:48:59;1.43;;;0.80;;
23206;SDS011;11773;52.570;13.052;2023-02-22T04:51:29;0.63;;;0.63;;
23206;SDS011;11773;52.570;13.052;2023-02-22T04:53:58;0.50;;;0.50;;
23206;SDS011;11773;52.570;13.052;2023-02-22T04:56:28;1.50;;;0.70;;
23206;SDS011;11773;52.570;13.052;2023-02-22T04:58:57;1.37;;;0.93;;
23206;SDS011;11773;52.570;13.052;2023-02-22T05:01:31;1.50;;;0.60;;
23206;SDS011;11773;52.570;13.052;2023-02-22T05:04:02;0.93;;;0.60;;
23206;SDS011;11773;52.570;13.052;2023-02-22T05:06:33;1.17;;;0.70;;
23206;SDS011;11773;52.570;13.052;2023-02-22T05:09:03;0.77;;;0.47;;
23206;SDS011;11773;52.570;13.052;2023-02-22T05:11:33;1.80;;;0.60;;
23206;SDS011;11773;52.570;13.052;2023-02-22T05:14:02;0.77;;;0.50;;
23206;SDS011;11773;52.570;13.052;2023-02-22T05:16:33;1.00;;;0.90;;
23206;SDS011;11773;52.570;13.052;2023-02-22T05:19:03;0.70;;;0.40;;
23206;SDS011;11773;52.570;13.052;2023-02-22T05:21:32;1.17;;;0.83;;
23206;SDS011;11773;52.570;13.052;2023-02-22T05:24:02;0.60;;;0.60;;
23206;SDS011;11773;52.570;13.052;2023-02-22T05:26:32;1.47;;;0.90;;
23206;SDS011;11773;52.570;13.052;2023-02-22T05:29:02;0.60;;;0.50;;
23206;SDS011;11773;52.570;13.052;2023-02-22T05:31:31;1.10;;;0.60;;
23206;SDS011;11773;52.570;13.052;2023-02-22T05:34:01;0.60;;;0.50;;
23206;SDS011;11773;52.570;13.052;2023-02-22T05:36:30;1.90;;;0.70;;
23206;SDS011;11773;52.570;13.052;2023-02-22T05:39:00;0.87;;;0.57;;
23206;SDS011;11773;52.570;13.052;2023-02-22T05:41:31;1.33;;;0.90;;
23206;SDS011;11773;52.570;13.052;2023-02-22T05:44:00;1.63;;;1.00;;
23206;SDS011;11773;52.570;13.052;2023-02-22T05:46:30;1.23;;;0.90;;
23206;SDS011;11773;52.570;13.052;2023-02-22T05:49:00;0.73;;;0.53;;
23206;SDS011;11773;52.570;13.052;2023-02-22T05:51:29;1.43;;;0.80;;
23206;SDS011;11773;52.570;13.052;2023-02-22T05:53:59;1.20;;;0.80;;
23206;SDS011;11773;52.570;13.052;2023-02-22T05:56:28;0.70;;;0.50;;
23206;SDS011;11773;52.570;13.052;2023-02-22T05:58:58;0.80;;;0.80;;
23206;SDS011;11773;52.570;13.052;2023-02-22T06:01:27;1.10;;;0.87;;
23206;SDS011;11773;52.570;13.052;2023-02-22T06:03:57;1.57;;;0.80;;
23206;SDS011;11773;52.570;13.052;2023-02-22T06:06:26;1.17;;;0.70;;
23206;SDS011;11773;52.570;13.052;2023-02-22T06:08:56;0.80;;;0.70;;
23206;SDS011;11773;52.570;13.052;2023-02-22T06:11:26;1.83;;;0.90;;
23206;SDS011;11773;52.570;13.052;2023-02-22T06:13:55;1.20;;;0.60;;
23206;SDS011;11773;52.570;13.052;2023-02-22T06:16:25;1.50;;;0.80;;
23206;SDS011;11773;52.570;13.052;2023-02-22T06:18:54;0.80;;;0.57;;
23206;SDS011;11773;52.570;13.052;2023-02-22T06:21:25;1.90;;;0.60;;
23206;SDS011;11773;52.570;13.052;2023-02-22T06:23:55;0.60;;;0.60;;
23206;SDS011;11773;52.570;13.052;2023-02-22T06:26:25;0.80;;;0.80;;
23206;SDS011;11773;52.570;13.052;2023-02-22T06:28:54;1.30;;;0.90;;
23206;SDS011;11773;52.570;13.052;2023-02-22T06:31:24;0.63;;;0.63;;
23206;SDS011;11773;52.570;13.052;2023-02-22T06:33:53;1.43;;;1.00;;
23206;SDS011;11773;52.570;13.052;2023-02-22T06:36:23;1.53;;;0.80;;
23206;SDS011;11773;52.570;13.052;2023-02-22T06:38:52;0.83;;;0.60;;
23206;SDS011;11773;52.570;13.052;2023-02-22T06:41:24;0.63;;;0.63;;
23206;SDS011;11773;52.570;13.052;2023-02-22T06:43:53;2.77;;;0.80;;
23206;SDS011;11773;52.570;13.052;2023-02-22T06:46:22;0.80;;;0.60;;
23206;SDS011;11773;52.570;13.052;2023-02-22T06:48:52;1.10;;;0.80;;
23206;SDS011;11773;52.570;13.052;2023-02-22T06:51:23;0.87;;;0.50;;
23206;SDS011;11773;52.570;13.052;2023-02-22T06:53:53;0.80;;;0.43;;
23206;SDS011;11773;52.570;13.052;2023-02-22T06:56:23;0.60;;;0.50;;
23206;SDS011;11773;52.570;13.052;2023-02-22T06:58:52;1.23;;;0.83;;
23206;SDS011;11773;52.570;13.052;2023-02-22T07:01:22;1.37;;;0.87;;
23206;SDS011;11773;52.570;13.052;2023-02-22T07:03:51;1.20;;;0.80;;
23206;SDS011;11773;52.570;13.052;2023-02-22T07:06:21;1.27;;;0.80;;
23206;SDS011;11773;52.570;13.052;2023-02-22T07:08:50;1.30;;;0.70;;
23206;SDS011;11773;52.570;13.052;2023-02-22T07:11:20;1.07;;;0.80;;
23206;SDS011;11773;52.570;13.052;2023-02-22T07:13:50;1.37;;;0.90;;
23206;SDS011;11773;52.570;13.052;2023-02-22T07:16:21;0.77;;;0.70;;
23206;SDS011;11773;52.570;13.052;2023-02-22T07:18:50;1.10;;;1.00;;
23206;SDS011;11773;52.570;13.052;2023-02-22T07:21:20;1.40;;;1.00;;
23206;SDS011;11773;52.570;13.052;2023-02-22T07:23:54;0.70;;;0.70;;
23206;SDS011;11773;52.570;13.052;2023-02-22T07:26:25;1.20;;;0.93;;
23206;SDS011;11773;52.570;13.052;2023-02-22T07:28:55;1.10;;;0.90;;
23206;SDS011;11773;52.570;13.052;2023-02-22T07:31:24;0.87;;;0.77;;
23206;SDS011;11773;52.570;13.052;2023-02-22T07:33:55;1.73;;;1.07;;
23206;SDS011;11773;52.570;13.052;2023-02-22T07:36:25;1.83;;;1.07;;
23206;SDS011;11773;52.570;13.052;2023-02-22T07:38:54;1.07;;;0.93;;
23206;SDS011;11773;52.570;13.052;2023-02-22T07:41:24;1.17;;;0.80;;
23206;SDS011;11773;52.570;13.052;2023-02-22T07:43:53;1.13;;;0.70;;
23206;SDS011;11773;52.570;13.052;2023-02-22T07:46:23;1.70;;;1.00;;
23206;SDS011;11773;52.570;13.052;2023-02-22T07:48:52;1.00;;;0.67;;
23206;SDS011;11773;52.570;13.052;2023-02-22T07:51:22;1.43;;;1.00;;
23206;SDS011;11773;52.570;13.052;2023-02-22T07:53:51;2.00;;;1.07;;
23206;SDS011;11773;52.570;13.052;2023-02-22T07:56:21;1.30;;;1.00;;
23206;SDS011;11773;52.570;13.052;2023-02-22T07:58:50;1.80;;;1.13;;
23206;SDS011;11773;52.570;13.052;2023-02-22T08:01:19;4.30;;;1.42;;
23206;SDS011;11773;52.570;13.052;2023-02-22T08:03:50;2.83;;;1.30;;
23206;SDS011;11773;52.570;13.052;2023-02-22T08:06:20;4.53;;;1.50;;
23206;SDS011;11773;52.570;13.052;2023-02-22T08:08:51;3.70;;;1.50;;
23206;SDS011;11773;52.570;13.052;2023-02-22T08:11:20;4.40;;;1.80;;
23206;SDS011;11773;52.570;13.052;2023-02-22T08:13:51;3.63;;;1.63;;
23206;SDS011;11773;52.570;13.052;2023-02-22T08:16:20;2.93;;;1.57;;
23206;SDS011;11773;52.570;13.052;2023-02-22T08:18:50;3.43;;;1.57;;
23206;SDS011;11773;52.570;13.052;2023-02-22T08:21:19;3.10;;;1.57;;
23206;SDS011;11773;52.570;13.052;2023-02-22T08:23:51;3.00;;;1.60;;
23206;SDS011;11773;52.570;13.052;2023-02-22T08:26:22;2.93;;;1.20;;
23206;SDS011;11773;52.570;13.052;2023-02-22T08:28:51;2.83;;;1.10;;
23206;SDS011;11773;52.570;13.052;2023-02-22T08:31:21;3.07;;;1.43;;
23206;SDS011;11773;52.570;13.052;2023-02-22T08:33:50;3.70;;;1.87;;
23206;SDS011;11773;52.570;13.052;2023-02-22T08:36:20;1.73;;;1.20;;
23206;SDS011;11773;52.570;13.052;2023-02-22T08:38:50;3.57;;;1.20;;
23206;SDS011;11773;52.570;13.052;2023-02-22T08:41:19;2.20;;;1.17;;
23206;SDS011;11773;52.570;13.052;2023-02-22T08:43:49;2.80;;;1.30;;
23206;SDS011;11773;52.570;13.052;2023-02-22T08:46:18;1.97;;;1.10;;
23206;SDS011;11773;52.570;13.052;2023-02-22T08:48:48;3.43;;;1.43;;
23206;SDS011;11773;52.570;13.052;2023-02-22T08:51:19;3.77;;;1.40;;
23206;SDS011;11773;52.570;13.052;2023-02-22T08:53:49;2.83;;;1.40;;
23206;SDS011;11773;52.570;13.052;2023-02-22T08:56:19;3.07;;;1.20;;
23206;SDS011;11773;52.570;13.052;2023-02-22T08:58:49;3.13;;;1.43;;
23206;SDS011;11773;52.570;13.052;2023-02-22T09:01:18;2.90;;;1.50;;
23206;SDS011;11773;52.570;13.052;2023-02-22T09:03:51;2.20;;;1.40;;
23206;SDS011;11773;52.570;13.052;2023-02-22T09:06:22;3.97;;;1.13;;
23206;SDS011;11773;52.570;13.052;2023-02-22T09:08:51;2.97;;;1.50;;
23206;SDS011;11773;52.570;13.052;2023-02-22T09:11:21;2.97;;;1.60;;
23206;SDS011;11773;52.570;13.052;2023-02-22T09:13:50;5.13;;;1.40;;
23206;SDS011;11773;52.570;13.052;2023-02-22T09:16:20;3.87;;;1.63;;
23206;SDS011;11773;52.570;13.052;2023-02-22T09:18:49;3.80;;;1.80;;
23206;SDS011;11773;52.570;13.052;2023-02-22T09:21:19;3.40;;;1.65;;
23206;SDS011;11773;52.570;13.052;2023-02-22T09:23:49;3.53;;;1.70;;
23206;SDS011;11773;52.570;13.052;2023-02-22T09:26:21;4.97;;;2.37;;
23206;SDS011;11773;52.570;13.052;2023-02-22T09:28:51;3.67;;;1.70;;
23206;SDS011;11773;52.570;13.052;2023-02-22T09:31:20;4.37;;;1.90;;
23206;SDS011;11773;52.570;13.052;2023-02-22T09:33:50;4.40;;;1.73;;
23206;SDS011;11773;52.570;13.052;2023-02-22T09:36:21;3.77;;;1.33;;
23206;SDS011;11773;52.570;13.052;2023-02-22T09:38:52;2.97;;;1.63;;
23206;SDS011;11773;52.570;13.052;2023-02-22T09:41:25;2.17;;;1.07;;
23206;SDS011;11773;52.570;13.052;2023-02-22T09:44:14;5.47;;;1.73;;
23206;SDS011;11773;52.570;13.052;2023-02-22T09:46:47;5.10;;;2.00;;
23206;SDS011;11773;52.570;13.052;2023-02-22T09:49:27;5.40;;;2.13;;
23206;SDS011;11773;52.570;13.052;2023-02-22T09:52:11;3.20;;;1.60;;
23206;SDS011;11773;52.570;13.052;2023-02-22T09:58:00;2.53;;;1.50;;
23206;SDS011;11773;52.570;13.052;2023-02-22T10:00:54;4.73;;;1.67;;
23206;SDS011;11773;52.570;13.052;2023-02-22T10:04:14;5.10;;;2.30;;
23206;SDS011;11773;52.570;13.052;2023-02-22T10:06:09;5.30;;;2.53;;
23206;SDS011;11773;52.570;13.052;2023-02-22T10:08:42;4.67;;;2.00;;
23206;SDS011;11773;52.570;13.052;2023-02-22T10:14:29;4.37;;;2.33;;
23206;SDS011;11773;52.570;13.052;2023-02-22T10:17:19;6.53;;;2.17;;
23206;SDS011;11773;52.570;13.052;2023-02-22T10:20:09;3.93;;;1.90;;
23206;SDS011;11773;52.570;13.052;2023-02-22T10:22:54;2.93;;;1.37;;
23206;SDS011;11773;52.570;13.052;2023-02-22T10:25:41;4.53;;;1.83;;
23206;SDS011;11773;52.570;13.052;2023-02-22T10:28:17;2.17;;;1.23;;
23206;SDS011;11773;52.570;13.052;2023-02-22T10:30:52;3.37;;;1.40;;
23206;SDS011;11773;52.570;13.052;2023-02-22T10:33:32;4.70;;;1.97;;
23206;SDS011;11773;52.570;13.052;2023-02-22T10:36:14;5.77;;;2.60;;
23206;SDS011;11773;52.570;13.052;2023-02-22T10:38:53;4.90;;;2.03;;
23206;SDS011;11773;52.570;13.052;2023-02-22T10:41:30;5.63;;;2.27;;
23206;SDS011;11773;52.570;13.052;2023-02-22T10:44:04;3.93;;;2.03;;
23206;SDS011;11773;52.570;13.052;2023-02-22T10:46:34;4.87;;;1.73;;
23206;SDS011;11773;52.570;13.052;2023-02-22T10:49:09;2.57;;;1.27;;
23206;SDS011;11773;52.570;13.052;2023-02-22T10:51:42;4.97;;;1.70;;
23206;SDS011;11773;52.570;13.052;2023-02-22T10:56:51;3.53;;;1.93;;
23206;SDS011;11773;52.570;13.052;2023-02-22T10:59:34;4.07;;;1.50;;
23206;SDS011;11773;52.570;13.052;2023-02-22T11:02:16;4.97;;;2.40;;
23206;SDS011;11773;52.570;13.052;2023-02-22T11:05:00;6.83;;;2.00;;
23206;SDS011;11773;52.570;13.052;2023-02-22T11:07:35;3.80;;;1.33;;
23206;SDS011;11773;52.570;13.052;2023-02-22T11:10:06;3.13;;;1.40;;
23206;SDS011;11773;52.570;13.052;2023-02-22T11:12:40;5.63;;;1.80;;
23206;SDS011;11773;52.570;13.052;2023-02-22T11:17:50;5.20;;;2.10;;
23206;SDS011;11773;52.570;13.052;2023-02-22T11:20:27;5.67;;;1.67;;
23206;SDS011;11773;52.570;13.052;2023-02-22T11:23:01;3.70;;;1.60;;
23206;SDS011;11773;52.570;13.052;2023-02-22T11:25:39;5.17;;;2.50;;
23206;SDS011;11773;52.570;13.052;2023-02-22T11:28:18;2.97;;;1.70;;
23206;SDS011;11773;52.570;13.052;2023-02-22T11:30:51;3.73;;;1.97;;
23206;SDS011;11773;52.570;13.052;2023-02-22T11:33:22;5.00;;;1.90;;
23206;SDS011;11773;52.570;13.052;2023-02-22T11:35:55;3.63;;;1.90;;
23206;SDS011;11773;52.570;13.052;2023-02-22T11:38:34;8.23;;;2.83;;
23206;SDS011;11773;52.570;13.052;2023-02-22T11:41:16;5.00;;;2.23;;
23206;SDS011;11773;52.570;13.052;2023-02-22T11:43:49;3.47;;;2.03;;
23206;SDS011;11773;52.570;13.052;2023-02-22T11:46:21;5.53;;;2.07;;
23206;SDS011;11773;52.570;13.052;2023-02-22T11:49:10;2.77;;;1.80;;
23206;SDS011;11773;52.570;13.052;2023-02-22T11:51:47;3.43;;;1.90;;
23206;SDS011;11773;52.570;13.052;2023-02-22T11:57:25;5.37;;;2.30;;
23206;SDS011;11773;52.570;13.052;2023-02-22T12:03:31;7.63;;;2.87;;
23206;SDS011;11773;52.570;13.052;2023-02-22T12:11:54;4.47;;;1.90;;
23206;SDS011;11773;52.570;13.052;2023-02-22T12:14:27;4.50;;;1.90;;
23206;SDS011;11773;52.570;13.052;2023-02-22T12:19:48;5.53;;;2.70;;
23206;SDS011;11773;52.570;13.052;2023-02-22T12:22:28;6.57;;;1.73;;
23206;SDS011;11773;52.570;13.052;2023-02-22T12:27:47;4.53;;;1.93;;
23206;SDS011;11773;52.570;13.052;2023-02-22T12:30:26;3.47;;;1.80;;
23206;SDS011;11773;52.570;13.052;2023-02-22T12:33:05;2.73;;;1.67;;
23206;SDS011;11773;52.570;13.052;2023-02-22T12:35:35;4.23;;;2.13;;
23206;SDS011;11773;52.570;13.052;2023-02-22T12:38:32;5.13;;;2.33;;
23206;SDS011;11773;52.570;13.052;2023-02-22T12:41:27;6.20;;;2.00;;
23206;SDS011;11773;52.570;13.052;2023-02-22T12:44:06;6.20;;;2.13;;
23206;SDS011;11773;52.570;13.052;2023-02-22T12:46:51;3.73;;;1.87;;
23206;SDS011;11773;52.570;13.052;2023-02-22T12:49:33;5.83;;;2.00;;
23206;SDS011;11773;52.570;13.052;2023-02-22T12:52:15;3.87;;;1.50;;
23206;SDS011;11773;52.570;13.052;2023-02-22T12:58:00;2.27;;;1.23;;
23206;SDS011;11773;52.570;13.052;2023-02-22T13:01:03;4.90;;;1.70;;
23206;SDS011;11773;52.570;13.052;2023-02-22T13:03:46;7.13;;;2.37;;
23206;SDS011;11773;52.570;13.052;2023-02-22T13:06:25;3.23;;;1.80;;
23206;SDS011;11773;52.570;13.052;2023-02-22T13:12:02;4.43;;;2.40;;
23206;SDS011;11773;52.570;13.052;2023-02-22T13:14:48;3.97;;;1.93;;
23206;SDS011;11773;52.570;13.052;2023-02-22T13:17:44;4.90;;;1.87;;
23206;SDS011;11773;52.570;13.052;2023-02-22T13:26:20;3.07;;;1.37;;
23206;SDS011;11773;52.570;13.052;2023-02-22T13:29:18;3.57;;;1.77;;
23206;SDS011;11773;52.570;13.052;2023-02-22T13:31:58;2.60;;;1.40;;
23206;SDS011;11773;52.570;13.052;2023-02-22T13:37:49;4.13;;;2.10;;
23206;SDS011;11773;52.570;13.052;2023-02-22T13:40:57;5.17;;;2.20;;
23206;SDS011;11773;52.570;13.052;2023-02-22T13:49:58;2.13;;;1.37;;
23206;SDS011;11773;52.570;13.052;2023-02-22T13:52:44;3.10;;;1.30;;
23206;SDS011;11773;52.570;13.052;2023-02-22T13:55:20;3.00;;;1.27;;
23206;SDS011;11773;52.570;13.052;2023-02-22T13:58:08;1.63;;;0.90;;
23206;SDS011;11773;52.570;13.052;2023-02-22T14:03:33;3.67;;;1.50;;
23206;SDS011;11773;52.570;13.052;2023-02-22T14:09:08;2.50;;;1.30;;
23206;SDS011;11773;52.570;13.052;2023-02-22T14:11:45;2.57;;;1.23;;
23206;SDS011;11773;52.570;13.052;2023-02-22T14:14:17;2.63;;;1.20;;
23206;SDS011;11773;52.570;13.052;2023-02-22T14:17:14;3.83;;;1.27;;
23206;SDS011;11773;52.570;13.052;2023-02-22T14:20:01;2.90;;;1.60;;
23206;SDS011;11773;52.570;13.052;2023-02-22T14:22:36;1.53;;;1.00;;
23206;SDS011;11773;52.570;13.052;2023-02-22T14:25:05;2.10;;;1.50;;
23206;SDS011;11773;52.570;13.052;2023-02-22T14:27:54;1.37;;;1.00;;
23206;SDS011;11773;52.570;13.052;2023-02-22T14:30:25;4.00;;;1.50;;
23206;SDS011;11773;52.570;13.052;2023-02-22T14:32:58;5.20;;;1.67;;
23206;SDS011;11773;52.570;13.052;2023-02-22T14:35:35;6.03;;;2.37;;
23206;SDS011;11773;52.570;13.052;2023-02-22T14:38:13;3.07;;;1.90;;
23206;SDS011;11773;52.570;13.052;2023-02-22T14:40:46;3.03;;;1.87;;
23206;SDS011;11773;52.570;13.052;2023-02-22T14:43:18;2.70;;;1.60;;
23206;SDS011;11773;52.570;13.052;2023-02-22T14:45:51;4.40;;;1.90;;
23206;SDS011;11773;52.570;13.052;2023-02-22T14:48:35;4.27;;;1.40;;
23206;SDS011;11773;52.570;13.052;2023-02-22T14:54:01;2.90;;;1.57;;
23206;SDS011;11773;52.570;13.052;2023-02-22T14:57:04;3.40;;;1.47;;
23206;SDS011;11773;52.570;13.052;2023-02-22T15:02:23;5.20;;;1.97;;
23206;SDS011;11773;52.570;13.052;2023-02-22T15:04:53;2.73;;;1.63;;
23206;SDS011;11773;52.570;13.052;2023-02-22T15:07:28;2.40;;;1.47;;
23206;SDS011;11773;52.570;13.052;2023-02-22T15:10:13;3.50;;;1.70;;
23206;SDS011;11773;52.570;13.052;2023-02-22T15:13:00;3.43;;;1.80;;
23206;SDS011;11773;52.570;13.052;2023-02-22T15:15:41;3.80;;;1.77;;
23206;SDS011;11773;52.570;13.052;2023-02-22T15:18:23;2.90;;;1.30;;
23206;SDS011;11773;52.570;13.052;2023-02-22T15:21:10;3.53;;;1.53;;
23206;SDS011;11773;52.570;13.052;2023-02-22T15:23:48;1.80;;;1.23;;
23206;SDS011;11773;52.570;13.052;2023-02-22T15:26:28;2.13;;;1.20;;
23206;SDS011;11773;52.570;13.052;2023-02-22T15:29:23;2.40;;;1.23;;
23206;SDS011;11773;52.570;13.052;2023-02-22T15:32:01;2.37;;;1.47;;
23206;SDS011;11773;52.570;13.052;2023-02-22T15:34:49;5.00;;;2.03;;
23206;SDS011;11773;52.570;13.052;2023-02-22T15:37:21;3.60;;;1.90;;
23206;SDS011;11773;52.570;13.052;2023-02-22T15:40:04;2.30;;;1.70;;
23206;SDS011;11773;52.570;13.052;2023-02-22T15:42:48;3.73;;;2.10;;
23206;SDS011;11773;52.570;13.052;2023-02-22T15:45:17;4.43;;;2.30;;
23206;SDS011;11773;52.570;13.052;2023-02-22T15:47:51;4.37;;;2.40;;
23206;SDS011;11773;52.570;13.052;2023-02-22T15:50:23;3.83;;;2.00;;
23206;SDS011;11773;52.570;13.052;2023-02-22T15:53:04;4.30;;;2.03;;
23206;SDS011;11773;52.570;13.052;2023-02-22T15:55:43;2.63;;;1.80;;
23206;SDS011;11773;52.570;13.052;2023-02-22T16:00:56;3.63;;;1.87;;
23206;SDS011;11773;52.570;13.052;2023-02-22T16:03:50;4.23;;;1.60;;
23206;SDS011;11773;52.570;13.052;2023-02-22T16:11:47;4.30;;;1.80;;
23206;SDS011;11773;52.570;13.052;2023-02-22T16:14:23;4.10;;;1.77;;
23206;SDS011;11773;52.570;13.052;2023-02-22T16:22:45;2.97;;;1.83;;
23206;SDS011;11773;52.570;13.052;2023-02-22T16:28:02;3.90;;;2.70;;
23206;SDS011;11773;52.570;13.052;2023-02-22T16:30:55;3.07;;;2.30;;
23206;SDS011;11773;52.570;13.052;2023-02-22T16:33:26;7.67;;;2.47;;
23206;SDS011;11773;52.570;13.052;2023-02-22T16:36:05;4.37;;;1.83;;
23206;SDS011;11773;52.570;13.052;2023-02-22T16:38:35;4.40;;;2.30;;
23206;SDS011;11773;52.570;13.052;2023-02-22T16:41:05;4.47;;;2.00;;
23206;SDS011;11773;52.570;13.052;2023-02-22T16:43:35;3.17;;;1.90;;
23206;SDS011;11773;52.570;13.052;2023-02-22T16:46:05;2.67;;;1.50;;
23206;SDS011;11773;52.570;13.052;2023-02-22T16:48:34;3.50;;;1.77;;
23206;SDS011;11773;52.570;13.052;2023-02-22T16:51:07;3.10;;;1.70;;
23206;SDS011;11773;52.570;13.052;2023-02-22T16:53:46;4.23;;;2.00;;
23206;SDS011;11773;52.570;13.052;2023-02-22T16:56:18;4.50;;;2.00;;